sensor_id;sensor_type;location;lat;lon;timestamp;temperature;humidity
17333;DHT22;8784;50.94667800;7.08448400;2023-08-06T00:00:57;16.40;99.90
17333;DHT22;8784;50.94667800;7.08448400;2023-08-06T00:03:24;16.30;99.90
17333;DHT22;8784;50.94667800;7.08448400;2023-08-06T00:05:52;16.30;99.90
17333;DHT22;8784;50.94667800;7.08448400;2023-08-06T00:08:19;16.30;99.90
17333;DHT22;8784;50.94667800;7.08448400;2023-08-06T00:10:47;16.30;99.90
17333;DHT22;8784;50.94667800;7.08448400;2023-08-06T00:13:14;16.30;99.90
17333;DHT22;8784;50.94667800;7.08448400;2023-08-06T00:15:41;16.20;99.90
17333;DHT22;8784;50.94667800;7.08448400;2023-08-06T00:18:08;16.10;99.90
17333;DHT22;8784;50.94667800;7.08448400;2023-08-06T00:20:35;16.20;99.90
17333;DHT22;8784;50.94667800;7.08448400;2023-08-06T00:23:03;16.10;99.90
17333;DHT22;8784;50.94667800;7.08448400;2023-08-06T00:25:30;16.10;99.90
17333;DHT22;8784;50.94667800;7.08448400;2023-08-06T00:27:56;16.10;99.90
17333;DHT22;8784;50.94667800;7.08448400;2023-08-06T00:30:23;16.10;99.90
17333;DHT22;8784;50.94667800;7.08448400;2023-08-06T00:32:50;16.10;99.90
17333;DHT22;8784;50.94667800;7.08448400;2023-08-06T00:35:17;16.10;99.90
17333;DHT22;8784;50.94667800;7.08448400;2023-08-06T00:37:43;16.10;99.90
17333;DHT22;8784;50.94667800;7.08448400;2023-08-06T00:40:12;16.10;99.90
17333;DHT22;8784;50.94667800;7.08448400;2023-08-06T00:42:39;16.00;99.90
17333;DHT22;8784;50.94667800;7.08448400;2023-08-06T00:45:06;16.00;99.90
17333;DHT22;8784;50.94667800;7.08448400;2023-08-06T00:47:33;16.00;99.90
17333;DHT22;8784;50.94667800;7.08448400;2023-08-06T00:50:00;16.00;99.90
17333;DHT22;8784;50.94667800;7.08448400;2023-08-06T00:52:28;16.00;99.90
17333;DHT22;8784;50.94667800;7.08448400;2023-08-06T00:54:55;16.00;99.90
17333;DHT22;8784;50.94667800;7.08448400;2023-08-06T00:57:24;16.00;99.90
17333;DHT22;8784;50.94667800;7.08448400;2023-08-06T00:59:53;15.90;99.90
17333;DHT22;8784;50.94667800;7.08448400;2023-08-06T01:02:20;15.80;99.90
17333;DHT22;8784;50.94667800;7.08448400;2023-08-06T01:04:47;15.80;99.90
17333;DHT22;8784;50.94667800;7.08448400;2023-08-06T01:07:21;15.80;99.90
17333;DHT22;8784;50.94667800;7.08448400;2023-08-06T01:09:58;15.80;99.90
17333;DHT22;8784;50.94667800;7.08448400;2023-08-06T01:12:37;15.80;99.90
17333;DHT22;8784;50.94667800;7.08448400;2023-08-06T01:15:13;15.90;99.90
17333;DHT22;8784;50.94667800;7.08448400;2023-08-06T01:17:42;15.90;99.90
17333;DHT22;8784;50.94667800;7.08448400;2023-08-06T01:20:09;15.80;99.90
17333;DHT22;8784;50.94667800;7.08448400;2023-08-06T01:22:38;15.90;99.90
17333;DHT22;8784;50.94667800;7.08448400;2023-08-06T01:25:05;15.90;99.90
17333;DHT22;8784;50.94667800;7.08448400;2023-08-06T01:27:38;15.90;99.90
17333;DHT22;8784;50.94667800;7.08448400;2023-08-06T01:30:12;16.00;99.90
17333;DHT22;8784;50.94667800;7.08448400;2023-08-06T01:32:43;16.10;99.90
17333;DHT22;8784;50.94667800;7.08448400;2023-08-06T01:35:12;16.10;99.90
17333;DHT22;8784;50.94667800;7.08448400;2023-08-06T01:37:42;16.20;99.90
17333;DHT22;8784;50.94667800;7.08448400;2023-08-06T01:40:10;16.30;99.90
17333;DHT22;8784;50.94667800;7.08448400;2023-08-06T01:42:37;16.30;99.90
17333;DHT22;8784;50.94667800;7.08448400;2023-08-06T01:45:05;16.20;99.90
17333;DHT22;8784;50.94667800;7.08448400;2023-08-06T01:47:32;16.30;99.90
17333;DHT22;8784;50.94667800;7.08448400;2023-08-06T01:49:59;16.30;99.90
17333;DHT22;8784;50.94667800;7.08448400;2023-08-06T01:52:26;16.30;99.90
17333;DHT22;8784;50.94667800;7.08448400;2023-08-06T01:54:54;16.30;99.90
17333;DHT22;8784;50.94667800;7.08448400;2023-08-06T01:57:21;16.30;99.90
17333;DHT22;8784;50.94667800;7.08448400;2023-08-06T01:59:48;16.30;99.90
17333;DHT22;8784;50.94667800;7.08448400;2023-08-06T02:02:15;16.30;99.90
17333;DHT22;8784;50.94667800;7.08448400;2023-08-06T02:04:42;16.30;99.90
17333;DHT22;8784;50.94667800;7.08448400;2023-08-06T02:07:09;16.20;99.90
17333;DHT22;8784;50.94667800;7.08448400;2023-08-06T02:09:36;16.10;99.90
17333;DHT22;8784;50.94667800;7.08448400;2023-08-06T02:12:05;16.00;99.90
17333;DHT22;8784;50.94667800;7.08448400;2023-08-06T02:14:33;15.90;99.90
17333;DHT22;8784;50.94667800;7.08448400;2023-08-06T02:17:00;15.80;99.90
17333;DHT22;8784;50.94667800;7.08448400;2023-08-06T02:19:27;15.80;99.90
17333;DHT22;8784;50.94667800;7.08448400;2023-08-06T02:21:53;15.80;99.90
17333;DHT22;8784;50.94667800;7.08448400;2023-08-06T02:24:20;15.90;99.90
17333;DHT22;8784;50.94667800;7.08448400;2023-08-06T02:26:47;16.00;99.90
17333;DHT22;8784;50.94667800;7.08448400;2023-08-06T02:29:17;16.10;99.90
17333;DHT22;8784;50.94667800;7.08448400;2023-08-06T02:31:44;16.20;99.90
17333;DHT22;8784;50.94667800;7.08448400;2023-08-06T02:34:11;16.20;99.90
17333;DHT22;8784;50.94667800;7.08448400;2023-08-06T02:36:38;16.20;99.90
17333;DHT22;8784;50.94667800;7.08448400;2023-08-06T02:39:05;16.10;99.90
17333;DHT22;8784;50.94667800;7.08448400;2023-08-06T02:41:32;16.10;99.90
17333;DHT22;8784;50.94667800;7.08448400;2023-08-06T02:43:59;16.00;99.90
17333;DHT22;8784;50.94667800;7.08448400;2023-08-06T02:46:27;16.00;99.90
17333;DHT22;8784;50.94667800;7.08448400;2023-08-06T02:48:54;16.10;99.90
17333;DHT22;8784;50.94667800;7.08448400;2023-08-06T02:51:21;16.10;99.90
17333;DHT22;8784;50.94667800;7.08448400;2023-08-06T02:53:48;16.00;99.90
17333;DHT22;8784;50.94667800;7.08448400;2023-08-06T02:56:15;16.10;99.90
17333;DHT22;8784;50.94667800;7.08448400;2023-08-06T02:58:42;16.10;99.90
17333;DHT22;8784;50.94667800;7.08448400;2023-08-06T03:01:08;16.10;99.90
17333;DHT22;8784;50.94667800;7.08448400;2023-08-06T03:03:37;16.10;99.90
17333;DHT22;8784;50.94667800;7.08448400;2023-08-06T03:06:03;16.10;99.90
17333;DHT22;8784;50.94667800;7.08448400;2023-08-06T03:08:30;16.10;99.90
17333;DHT22;8784;50.94667800;7.08448400;2023-08-06T03:10:57;16.00;99.90
17333;DHT22;8784;50.94667800;7.08448400;2023-08-06T03:13:24;16.00;99.90
17333;DHT22;8784;50.94667800;7.08448400;2023-08-06T03:15:55;15.90;99.90
17333;DHT22;8784;50.94667800;7.08448400;2023-08-06T03:18:22;15.90;99.90
17333;DHT22;8784;50.94667800;7.08448400;2023-08-06T03:20:51;15.80;99.90
17333;DHT22;8784;50.94667800;7.08448400;2023-08-06T03:23:18;15.80;99.90
17333;DHT22;8784;50.94667800;7.08448400;2023-08-06T03:25:45;15.80;99.90
17333;DHT22;8784;50.94667800;7.08448400;2023-08-06T03:28:12;15.80;99.90
17333;DHT22;8784;50.94667800;7.08448400;2023-08-06T03:30:39;15.80;99.90
17333;DHT22;8784;50.94667800;7.08448400;2023-08-06T03:33:06;15.80;99.90
17333;DHT22;8784;50.94667800;7.08448400;2023-08-06T03:35:32;15.80;99.90
17333;DHT22;8784;50.94667800;7.08448400;2023-08-06T03:38:01;15.80;99.90
17333;DHT22;8784;50.94667800;7.08448400;2023-08-06T03:40:28;15.80;99.90
17333;DHT22;8784;50.94667800;7.08448400;2023-08-06T03:42:56;15.90;99.90
17333;DHT22;8784;50.94667800;7.08448400;2023-08-06T03:45:23;15.90;99.90
17333;DHT22;8784;50.94667800;7.08448400;2023-08-06T03:47:50;16.00;99.90
17333;DHT22;8784;50.94667800;7.08448400;2023-08-06T03:50:17;16.00;99.90
17333;DHT22;8784;50.94667800;7.08448400;2023-08-06T03:52:43;16.00;99.90
17333;DHT22;8784;50.94667800;7.08448400;2023-08-06T03:55:12;16.00;99.90
17333;DHT22;8784;50.94667800;7.08448400;2023-08-06T03:57:39;15.90;99.90
17333;DHT22;8784;50.94667800;7.08448400;2023-08-06T04:00:06;15.80;99.90
17333;DHT22;8784;50.94667800;7.08448400;2023-08-06T04:02:33;15.80;99.90
17333;DHT22;8784;50.94667800;7.08448400;2023-08-06T04:05:01;15.70;99.90
17333;DHT22;8784;50.94667800;7.08448400;2023-08-06T04:07:28;15.60;99.90
17333;DHT22;8784;50.94667800;7.08448400;2023-08-06T04:09:56;15.60;99.90
17333;DHT22;8784;50.94667800;7.08448400;2023-08-06T04:12:25;15.60;99.90
17333;DHT22;8784;50.94667800;7.08448400;2023-08-06T04:14:52;15.60;99.90
17333;DHT22;8784;50.94667800;7.08448400;2023-08-06T04:17:20;15.40;99.90
17333;DHT22;8784;50.94667800;7.08448400;2023-08-06T04:19:48;15.30;99.90
17333;DHT22;8784;50.94667800;7.08448400;2023-08-06T04:22:15;15.20;99.90
17333;DHT22;8784;50.94667800;7.08448400;2023-08-06T04:24:43;15.20;99.90
17333;DHT22;8784;50.94667800;7.08448400;2023-08-06T04:27:10;15.10;99.90
17333;DHT22;8784;50.94667800;7.08448400;2023-08-06T04:29:39;15.20;99.90
17333;DHT22;8784;50.94667800;7.08448400;2023-08-06T04:32:07;15.30;99.90
17333;DHT22;8784;50.94667800;7.08448400;2023-08-06T04:34:35;15.20;99.90
17333;DHT22;8784;50.94667800;7.08448400;2023-08-06T04:37:03;15.10;99.90
17333;DHT22;8784;50.94667800;7.08448400;2023-08-06T04:39:30;15.00;99.90
17333;DHT22;8784;50.94667800;7.08448400;2023-08-06T04:41:57;15.00;99.90
17333;DHT22;8784;50.94667800;7.08448400;2023-08-06T04:44:24;15.10;99.90
17333;DHT22;8784;50.94667800;7.08448400;2023-08-06T04:46:52;15.00;99.90
17333;DHT22;8784;50.94667800;7.08448400;2023-08-06T04:49:19;15.00;99.90
17333;DHT22;8784;50.94667800;7.08448400;2023-08-06T04:51:46;15.00;99.90
17333;DHT22;8784;50.94667800;7.08448400;2023-08-06T04:54:13;15.00;99.90
17333;DHT22;8784;50.94667800;7.08448400;2023-08-06T04:56:40;15.10;99.90
17333;DHT22;8784;50.94667800;7.08448400;2023-08-06T04:59:07;15.00;99.90
17333;DHT22;8784;50.94667800;7.08448400;2023-08-06T05:01:33;15.00;99.90
17333;DHT22;8784;50.94667800;7.08448400;2023-08-06T05:04:02;15.10;99.90
17333;DHT22;8784;50.94667800;7.08448400;2023-08-06T05:06:29;15.10;99.90
17333;DHT22;8784;50.94667800;7.08448400;2023-08-06T05:08:56;15.10;99.90
17333;DHT22;8784;50.94667800;7.08448400;2023-08-06T05:11:23;15.10;99.90
17333;DHT22;8784;50.94667800;7.08448400;2023-08-06T05:13:50;15.20;99.90
17333;DHT22;8784;50.94667800;7.08448400;2023-08-06T05:16:17;15.20;99.90
17333;DHT22;8784;50.94667800;7.08448400;2023-08-06T05:18:44;15.20;99.90
17333;DHT22;8784;50.94667800;7.08448400;2023-08-06T05:21:12;15.20;99.90
17333;DHT22;8784;50.94667800;7.08448400;2023-08-06T05:23:39;15.40;99.90
17333;DHT22;8784;50.94667800;7.08448400;2023-08-06T05:26:06;15.60;99.90
17333;DHT22;8784;50.94667800;7.08448400;2023-08-06T05:28:33;15.80;99.90
17333;DHT22;8784;50.94667800;7.08448400;2023-08-06T05:31:03;15.90;99.90
17333;DHT22;8784;50.94667800;7.08448400;2023-08-06T05:33:30;15.90;99.90
17333;DHT22;8784;50.94667800;7.08448400;2023-08-06T05:35:57;16.00;99.90
17333;DHT22;8784;50.94667800;7.08448400;2023-08-06T05:38:25;16.10;99.90
17333;DHT22;8784;50.94667800;7.08448400;2023-08-06T05:40:52;16.20;99.90
17333;DHT22;8784;50.94667800;7.08448400;2023-08-06T05:43:19;16.10;99.90
17333;DHT22;8784;50.94667800;7.08448400;2023-08-06T05:45:49;16.10;99.90
17333;DHT22;8784;50.94667800;7.08448400;2023-08-06T05:48:16;16.00;99.90
17333;DHT22;8784;50.94667800;7.08448400;2023-08-06T05:50:42;16.00;99.90
17333;DHT22;8784;50.94667800;7.08448400;2023-08-06T05:53:09;16.10;99.90
17333;DHT22;8784;50.94667800;7.08448400;2023-08-06T05:55:38;16.10;99.90
17333;DHT22;8784;50.94667800;7.08448400;2023-08-06T05:58:05;16.30;99.90
17333;DHT22;8784;50.94667800;7.08448400;2023-08-06T06:00:32;16.30;99.90
17333;DHT22;8784;50.94667800;7.08448400;2023-08-06T06:03:00;16.30;99.90
17333;DHT22;8784;50.94667800;7.08448400;2023-08-06T06:05:27;16.40;99.90
17333;DHT22;8784;50.94667800;7.08448400;2023-08-06T06:07:54;16.60;99.90
17333;DHT22;8784;50.94667800;7.08448400;2023-08-06T06:10:21;16.80;99.90
17333;DHT22;8784;50.94667800;7.08448400;2023-08-06T06:12:49;17.00;99.90
17333;DHT22;8784;50.94667800;7.08448400;2023-08-06T06:15:16;17.00;99.90
17333;DHT22;8784;50.94667800;7.08448400;2023-08-06T06:17:43;17.10;99.90
17333;DHT22;8784;50.94667800;7.08448400;2023-08-06T06:20:10;17.20;99.90
17333;DHT22;8784;50.94667800;7.08448400;2023-08-06T06:22:37;17.20;99.90
17333;DHT22;8784;50.94667800;7.08448400;2023-08-06T06:25:05;17.20;99.90
17333;DHT22;8784;50.94667800;7.08448400;2023-08-06T06:27:32;17.30;99.90
17333;DHT22;8784;50.94667800;7.08448400;2023-08-06T06:30:00;17.40;99.90
17333;DHT22;8784;50.94667800;7.08448400;2023-08-06T06:32:27;17.50;99.90
17333;DHT22;8784;50.94667800;7.08448400;2023-08-06T06:34:54;17.60;99.90
17333;DHT22;8784;50.94667800;7.08448400;2023-08-06T06:37:21;17.70;99.90
17333;DHT22;8784;50.94667800;7.08448400;2023-08-06T06:39:48;17.90;99.90
17333;DHT22;8784;50.94667800;7.08448400;2023-08-06T06:42:15;18.00;99.90
17333;DHT22;8784;50.94667800;7.08448400;2023-08-06T06:44:42;18.10;99.90
17333;DHT22;8784;50.94667800;7.08448400;2023-08-06T06:47:10;18.10;99.90
17333;DHT22;8784;50.94667800;7.08448400;2023-08-06T06:49:37;18.10;99.90
17333;DHT22;8784;50.94667800;7.08448400;2023-08-06T06:52:05;18.20;99.90
17333;DHT22;8784;50.94667800;7.08448400;2023-08-06T06:54:32;18.20;99.90
17333;DHT22;8784;50.94667800;7.08448400;2023-08-06T06:56:58;18.20;99.90
17333;DHT22;8784;50.94667800;7.08448400;2023-08-06T06:59:25;18.20;99.90
17333;DHT22;8784;50.94667800;7.08448400;2023-08-06T07:01:52;18.10;99.90
17333;DHT22;8784;50.94667800;7.08448400;2023-08-06T07:04:20;18.20;99.90
17333;DHT22;8784;50.94667800;7.08448400;2023-08-06T07:06:47;18.20;99.90
17333;DHT22;8784;50.94667800;7.08448400;2023-08-06T07:09:14;18.20;99.90
17333;DHT22;8784;50.94667800;7.08448400;2023-08-06T07:11:41;18.30;99.90
17333;DHT22;8784;50.94667800;7.08448400;2023-08-06T07:14:09;18.20;99.90
17333;DHT22;8784;50.94667800;7.08448400;2023-08-06T07:16:36;18.00;99.90
17333;DHT22;8784;50.94667800;7.08448400;2023-08-06T07:19:03;18.00;99.90
17333;DHT22;8784;50.94667800;7.08448400;2023-08-06T07:21:32;18.00;99.90
17333;DHT22;8784;50.94667800;7.08448400;2023-08-06T07:23:59;17.90;99.90
17333;DHT22;8784;50.94667800;7.08448400;2023-08-06T07:26:26;17.90;99.90
17333;DHT22;8784;50.94667800;7.08448400;2023-08-06T07:28:53;17.90;99.90
17333;DHT22;8784;50.94667800;7.08448400;2023-08-06T07:31:20;17.80;99.90
17333;DHT22;8784;50.94667800;7.08448400;2023-08-06T07:33:46;17.90;99.90
17333;DHT22;8784;50.94667800;7.08448400;2023-08-06T07:36:14;18.00;99.90
17333;DHT22;8784;50.94667800;7.08448400;2023-08-06T07:38:42;18.10;99.90
17333;DHT22;8784;50.94667800;7.08448400;2023-08-06T07:41:09;18.20;99.90
17333;DHT22;8784;50.94667800;7.08448400;2023-08-06T07:43:36;18.30;99.90
17333;DHT22;8784;50.94667800;7.08448400;2023-08-06T07:46:03;18.40;99.90
17333;DHT22;8784;50.94667800;7.08448400;2023-08-06T07:48:31;18.40;99.90
17333;DHT22;8784;50.94667800;7.08448400;2023-08-06T07:50:58;18.40;99.90
17333;DHT22;8784;50.94667800;7.08448400;2023-08-06T07:53:26;18.50;99.90
17333;DHT22;8784;50.94667800;7.08448400;2023-08-06T07:55:56;18.60;99.90
17333;DHT22;8784;50.94667800;7.08448400;2023-08-06T07:58:24;18.60;99.90
17333;DHT22;8784;50.94667800;7.08448400;2023-08-06T08:00:51;18.70;99.90
17333;DHT22;8784;50.94667800;7.08448400;2023-08-06T08:03:18;18.80;99.90
17333;DHT22;8784;50.94667800;7.08448400;2023-08-06T08:05:45;18.80;99.90
17333;DHT22;8784;50.94667800;7.08448400;2023-08-06T08:08:12;18.90;99.90
17333;DHT22;8784;50.94667800;7.08448400;2023-08-06T08:10:39;18.90;99.90
17333;DHT22;8784;50.94667800;7.08448400;2023-08-06T08:13:08;18.90;99.90
17333;DHT22;8784;50.94667800;7.08448400;2023-08-06T08:15:35;18.80;99.90
17333;DHT22;8784;50.94667800;7.08448400;2023-08-06T08:18:02;18.80;99.90
17333;DHT22;8784;50.94667800;7.08448400;2023-08-06T08:20:29;18.80;99.90
17333;DHT22;8784;50.94667800;7.08448400;2023-08-06T08:22:59;18.80;99.90
17333;DHT22;8784;50.94667800;7.08448400;2023-08-06T08:25:26;18.90;99.90
17333;DHT22;8784;50.94667800;7.08448400;2023-08-06T08:27:54;18.90;99.90
17333;DHT22;8784;50.94667800;7.08448400;2023-08-06T08:30:22;18.90;99.90
17333;DHT22;8784;50.94667800;7.08448400;2023-08-06T08:32:50;19.00;99.90
17333;DHT22;8784;50.94667800;7.08448400;2023-08-06T08:35:17;19.10;99.90
17333;DHT22;8784;50.94667800;7.08448400;2023-08-06T08:37:44;19.20;99.90
17333;DHT22;8784;50.94667800;7.08448400;2023-08-06T08:40:11;19.20;99.90
17333;DHT22;8784;50.94667800;7.08448400;2023-08-06T08:42:38;19.20;99.90
17333;DHT22;8784;50.94667800;7.08448400;2023-08-06T08:45:11;19.30;99.90
17333;DHT22;8784;50.94667800;7.08448400;2023-08-06T08:47:40;19.40;99.90
17333;DHT22;8784;50.94667800;7.08448400;2023-08-06T08:50:09;19.40;99.90
17333;DHT22;8784;50.94667800;7.08448400;2023-08-06T08:52:38;19.40;99.90
17333;DHT22;8784;50.94667800;7.08448400;2023-08-06T08:55:07;19.40;99.90
17333;DHT22;8784;50.94667800;7.08448400;2023-08-06T08:57:34;19.40;99.90
17333;DHT22;8784;50.94667800;7.08448400;2023-08-06T09:00:01;19.50;99.90
17333;DHT22;8784;50.94667800;7.08448400;2023-08-06T09:02:29;19.60;99.90
17333;DHT22;8784;50.94667800;7.08448400;2023-08-06T09:05:00;19.70;99.90
17333;DHT22;8784;50.94667800;7.08448400;2023-08-06T09:07:31;19.80;99.90
17333;DHT22;8784;50.94667800;7.08448400;2023-08-06T09:10:02;20.00;99.90
17333;DHT22;8784;50.94667800;7.08448400;2023-08-06T09:12:30;20.10;99.90
17333;DHT22;8784;50.94667800;7.08448400;2023-08-06T09:14:57;20.10;99.90
17333;DHT22;8784;50.94667800;7.08448400;2023-08-06T09:17:24;19.90;99.90
17333;DHT22;8784;50.94667800;7.08448400;2023-08-06T09:19:53;19.90;99.90
17333;DHT22;8784;50.94667800;7.08448400;2023-08-06T09:22:21;19.90;99.90
17333;DHT22;8784;50.94667800;7.08448400;2023-08-06T09:24:48;19.90;99.90
17333;DHT22;8784;50.94667800;7.08448400;2023-08-06T09:27:16;19.70;99.90
17333;DHT22;8784;50.94667800;7.08448400;2023-08-06T09:29:44;19.50;99.90
17333;DHT22;8784;50.94667800;7.08448400;2023-08-06T09:32:12;19.40;99.90
17333;DHT22;8784;50.94667800;7.08448400;2023-08-06T09:34:42;19.40;99.90
17333;DHT22;8784;50.94667800;7.08448400;2023-08-06T09:37:09;19.40;99.90
17333;DHT22;8784;50.94667800;7.08448400;2023-08-06T09:39:39;19.40;99.90
17333;DHT22;8784;50.94667800;7.08448400;2023-08-06T09:42:06;19.40;99.90
17333;DHT22;8784;50.94667800;7.08448400;2023-08-06T09:44:33;19.40;99.90
17333;DHT22;8784;50.94667800;7.08448400;2023-08-06T09:47:02;19.40;99.90
17333;DHT22;8784;50.94667800;7.08448400;2023-08-06T09:49:41;19.80;99.90
17333;DHT22;8784;50.94667800;7.08448400;2023-08-06T09:52:11;20.10;99.90
17333;DHT22;8784;50.94667800;7.08448400;2023-08-06T09:54:40;20.40;99.90
17333;DHT22;8784;50.94667800;7.08448400;2023-08-06T09:57:08;20.40;99.90
17333;DHT22;8784;50.94667800;7.08448400;2023-08-06T09:59:35;20.30;99.90
17333;DHT22;8784;50.94667800;7.08448400;2023-08-06T10:02:12;20.20;99.90
17333;DHT22;8784;50.94667800;7.08448400;2023-08-06T10:04:40;20.10;99.90
17333;DHT22;8784;50.94667800;7.08448400;2023-08-06T10:07:07;20.00;99.90
17333;DHT22;8784;50.94667800;7.08448400;2023-08-06T10:09:35;19.90;99.90
17333;DHT22;8784;50.94667800;7.08448400;2023-08-06T10:12:04;19.90;99.90
17333;DHT22;8784;50.94667800;7.08448400;2023-08-06T10:14:34;19.90;99.90
17333;DHT22;8784;50.94667800;7.08448400;2023-08-06T10:17:03;19.90;99.90
17333;DHT22;8784;50.94667800;7.08448400;2023-08-06T10:19:31;19.90;99.90
17333;DHT22;8784;50.94667800;7.08448400;2023-08-06T10:22:11;20.00;99.90
17333;DHT22;8784;50.94667800;7.08448400;2023-08-06T10:24:52;20.00;99.90
17333;DHT22;8784;50.94667800;7.08448400;2023-08-06T10:27:29;19.80;99.90
17333;DHT22;8784;50.94667800;7.08448400;2023-08-06T10:29:56;19.70;99.90
17333;DHT22;8784;50.94667800;7.08448400;2023-08-06T10:32:47;19.20;99.90
17333;DHT22;8784;50.94667800;7.08448400;2023-08-06T10:35:28;18.60;99.90
17333;DHT22;8784;50.94667800;7.08448400;2023-08-06T10:37:59;18.20;99.90
17333;DHT22;8784;50.94667800;7.08448400;2023-08-06T10:40:26;17.80;99.90
17333;DHT22;8784;50.94667800;7.08448400;2023-08-06T10:42:58;17.60;99.90
17333;DHT22;8784;50.94667800;7.08448400;2023-08-06T10:45:25;17.40;99.90
17333;DHT22;8784;50.94667800;7.08448400;2023-08-06T10:47:54;17.20;99.90
17333;DHT22;8784;50.94667800;7.08448400;2023-08-06T10:50:22;17.20;99.90
17333;DHT22;8784;50.94667800;7.08448400;2023-08-06T10:52:50;17.20;99.90
17333;DHT22;8784;50.94667800;7.08448400;2023-08-06T10:55:24;17.10;99.90
17333;DHT22;8784;50.94667800;7.08448400;2023-08-06T10:57:51;17.00;99.90
17333;DHT22;8784;50.94667800;7.08448400;2023-08-06T11:00:21;17.00;99.90
17333;DHT22;8784;50.94667800;7.08448400;2023-08-06T11:02:48;17.00;99.90
17333;DHT22;8784;50.94667800;7.08448400;2023-08-06T11:05:15;16.80;99.90
17333;DHT22;8784;50.94667800;7.08448400;2023-08-06T11:07:43;16.80;99.90
17333;DHT22;8784;50.94667800;7.08448400;2023-08-06T11:10:12;16.80;99.90
17333;DHT22;8784;50.94667800;7.08448400;2023-08-06T11:12:40;16.70;99.90
17333;DHT22;8784;50.94667800;7.08448400;2023-08-06T11:15:07;16.70;99.90
17333;DHT22;8784;50.94667800;7.08448400;2023-08-06T11:17:37;16.60;99.90
17333;DHT22;8784;50.94667800;7.08448400;2023-08-06T11:20:06;16.60;99.90
17333;DHT22;8784;50.94667800;7.08448400;2023-08-06T11:22:33;16.70;99.90
17333;DHT22;8784;50.94667800;7.08448400;2023-08-06T11:25:00;16.80;99.90
17333;DHT22;8784;50.94667800;7.08448400;2023-08-06T11:27:28;16.80;99.90
17333;DHT22;8784;50.94667800;7.08448400;2023-08-06T11:29:55;16.80;99.90
17333;DHT22;8784;50.94667800;7.08448400;2023-08-06T11:32:22;16.80;99.90
17333;DHT22;8784;50.94667800;7.08448400;2023-08-06T11:34:50;16.70;99.90
17333;DHT22;8784;50.94667800;7.08448400;2023-08-06T11:37:21;16.70;99.90
17333;DHT22;8784;50.94667800;7.08448400;2023-08-06T11:39:49;16.80;99.90
17333;DHT22;8784;50.94667800;7.08448400;2023-08-06T11:42:17;17.00;99.90
17333;DHT22;8784;50.94667800;7.08448400;2023-08-06T11:44:44;17.00;99.90
17333;DHT22;8784;50.94667800;7.08448400;2023-08-06T11:47:14;17.00;99.90
17333;DHT22;8784;50.94667800;7.08448400;2023-08-06T11:49:43;17.10;99.90
17333;DHT22;8784;50.94667800;7.08448400;2023-08-06T11:52:19;17.10;99.90
17333;DHT22;8784;50.94667800;7.08448400;2023-08-06T11:54:47;17.20;99.90
17333;DHT22;8784;50.94667800;7.08448400;2023-08-06T11:57:15;17.20;99.90
17333;DHT22;8784;50.94667800;7.08448400;2023-08-06T11:59:42;17.30;99.90
17333;DHT22;8784;50.94667800;7.08448400;2023-08-06T12:02:09;17.40;99.90
17333;DHT22;8784;50.94667800;7.08448400;2023-08-06T12:05:10;17.40;99.90
17333;DHT22;8784;50.94667800;7.08448400;2023-08-06T12:07:40;17.40;99.90
17333;DHT22;8784;50.94667800;7.08448400;2023-08-06T12:10:07;17.50;99.90
17333;DHT22;8784;50.94667800;7.08448400;2023-08-06T12:12:34;17.50;99.90
17333;DHT22;8784;50.94667800;7.08448400;2023-08-06T12:15:03;17.50;99.90
17333;DHT22;8784;50.94667800;7.08448400;2023-08-06T12:17:30;17.50;99.90
17333;DHT22;8784;50.94667800;7.08448400;2023-08-06T12:19:57;17.50;99.90
17333;DHT22;8784;50.94667800;7.08448400;2023-08-06T12:22:24;17.40;99.90
17333;DHT22;8784;50.94667800;7.08448400;2023-08-06T12:24:52;17.60;99.90
17333;DHT22;8784;50.94667800;7.08448400;2023-08-06T12:27:19;17.80;99.90
17333;DHT22;8784;50.94667800;7.08448400;2023-08-06T12:29:48;17.90;99.90
17333;DHT22;8784;50.94667800;7.08448400;2023-08-06T12:32:15;18.00;99.90
17333;DHT22;8784;50.94667800;7.08448400;2023-08-06T12:34:42;18.00;99.90
17333;DHT22;8784;50.94667800;7.08448400;2023-08-06T12:37:09;17.90;99.90
17333;DHT22;8784;50.94667800;7.08448400;2023-08-06T12:39:37;17.80;99.90
17333;DHT22;8784;50.94667800;7.08448400;2023-08-06T12:42:05;17.80;99.90
17333;DHT22;8784;50.94667800;7.08448400;2023-08-06T12:44:33;17.90;99.90
17333;DHT22;8784;50.94667800;7.08448400;2023-08-06T12:47:00;17.90;99.90
17333;DHT22;8784;50.94667800;7.08448400;2023-08-06T12:49:26;18.00;99.90
17333;DHT22;8784;50.94667800;7.08448400;2023-08-06T12:51:54;18.20;99.90
17333;DHT22;8784;50.94667800;7.08448400;2023-08-06T12:54:22;18.20;99.90
17333;DHT22;8784;50.94667800;7.08448400;2023-08-06T12:56:49;18.30;99.90
17333;DHT22;8784;50.94667800;7.08448400;2023-08-06T12:59:18;18.40;99.90
17333;DHT22;8784;50.94667800;7.08448400;2023-08-06T13:01:45;18.50;99.90
17333;DHT22;8784;50.94667800;7.08448400;2023-08-06T13:04:14;18.60;99.90
17333;DHT22;8784;50.94667800;7.08448400;2023-08-06T13:06:41;18.60;99.90
17333;DHT22;8784;50.94667800;7.08448400;2023-08-06T13:09:08;18.60;99.90
17333;DHT22;8784;50.94667800;7.08448400;2023-08-06T13:11:35;18.60;99.90
17333;DHT22;8784;50.94667800;7.08448400;2023-08-06T13:14:07;18.60;99.90
17333;DHT22;8784;50.94667800;7.08448400;2023-08-06T13:16:36;18.70;99.90
17333;DHT22;8784;50.94667800;7.08448400;2023-08-06T13:19:03;18.70;99.90
17333;DHT22;8784;50.94667800;7.08448400;2023-08-06T13:21:35;18.70;99.90
17333;DHT22;8784;50.94667800;7.08448400;2023-08-06T13:24:03;18.80;99.90
17333;DHT22;8784;50.94667800;7.08448400;2023-08-06T13:26:30;18.80;99.90
17333;DHT22;8784;50.94667800;7.08448400;2023-08-06T13:28:57;18.80;99.90
17333;DHT22;8784;50.94667800;7.08448400;2023-08-06T13:31:25;18.70;99.90
17333;DHT22;8784;50.94667800;7.08448400;2023-08-06T13:33:54;18.70;99.90
17333;DHT22;8784;50.94667800;7.08448400;2023-08-06T13:36:23;18.70;99.90
17333;DHT22;8784;50.94667800;7.08448400;2023-08-06T13:38:50;18.80;99.90